METAR Data

Data at: 1118 UTC 24 May 2022

METAR for:KORH (Worcester Muni, MA, US)
Text:KORH 241054Z 05006KT 10SM CLR 11/03 A3033 RMK AO2 SLP270 T01060033
Temperature: 10.6°C ( 51°F)
Dewpoint: 3.3°C ( 38°F) [RH = 61%]
Pressure (altimeter):30.33 inches Hg (1027.2 mb) [Sea level pressure: 1027.0 mb]
Winds:from the NE (50 degrees) at 7 MPH (6 knots; 3.1 m/s)
Visibility:10 or more sm (16+ km)
Ceiling:at least 12,000 feet AGL
Clouds:sky clear below 12,000 feet AGL